Terminal Aerodrome Forecast
Issued by NWS

Home | Current Version | Previous Version | Text Only | Print | Product List | Glossary On
Versions: 1 2 3 4 5 6 7 8 9 10 11 12 13 14 15 16 17 18 19 20 21 22 23 24 25 26 27 28 29 30 31 32
000
FTUS42 KFFC 200135 AAA
TAFPDK
TAF AMD
KPDK 200135Z 2002/2024 20007KT P6SM BKN025
      TEMPO 2002/2003 5SM -SHRA BR BKN015
     FM200300 24009KT P6SM SCT045
     FM200600 21006KT P6SM SCT015
     FM200800 21008KT P6SM BKN008
     FM201400 22010G20KT P6SM BKN015
     FM201600 21012G22KT P6SM BKN035 PROB30 2017/2022 3SM TSRA
      BKN015CB=

USA.gov is the U.S. government's official web portal to all federal, state and local government web resources and services.